sensor_id;sensor_type;location;lat;lon;timestamp;P1;durP1;ratioP1;P2;durP2;ratioP2
54953;SDS011;40855;51.072;5.402;2023-02-07T00:00:43;46.75;;;17.95;;
54953;SDS011;40855;51.072;5.402;2023-02-07T00:03:09;45.63;;;18.33;;
54953;SDS011;40855;51.072;5.402;2023-02-07T00:05:35;51.08;;;17.20;;
54953;SDS011;40855;51.072;5.402;2023-02-07T00:08:04;56.08;;;19.05;;
54953;SDS011;40855;51.072;5.402;2023-02-07T00:10:30;44.05;;;18.27;;
54953;SDS011;40855;51.072;5.402;2023-02-07T00:12:56;57.22;;;18.70;;
54953;SDS011;40855;51.072;5.402;2023-02-07T00:15:22;52.58;;;18.42;;
54953;SDS011;40855;51.072;5.402;2023-02-07T00:17:48;53.72;;;18.23;;
54953;SDS011;40855;51.072;5.402;2023-02-07T00:20:14;47.38;;;19.85;;
54953;SDS011;40855;51.072;5.402;2023-02-07T00:22:41;53.65;;;19.63;;
54953;SDS011;40855;51.072;5.402;2023-02-07T00:25:10;60.75;;;19.63;;
54953;SDS011;40855;51.072;5.402;2023-02-07T00:27:37;57.17;;;19.60;;
54953;SDS011;40855;51.072;5.402;2023-02-07T00:30:03;53.47;;;19.27;;
54953;SDS011;40855;51.072;5.402;2023-02-07T00:32:32;51.80;;;18.13;;
54953;SDS011;40855;51.072;5.402;2023-02-07T00:34:59;48.60;;;18.77;;
54953;SDS011;40855;51.072;5.402;2023-02-07T00:37:25;49.97;;;19.98;;
54953;SDS011;40855;51.072;5.402;2023-02-07T00:39:51;55.10;;;19.30;;
54953;SDS011;40855;51.072;5.402;2023-02-07T00:42:17;46.20;;;17.48;;
54953;SDS011;40855;51.072;5.402;2023-02-07T00:44:43;48.88;;;19.15;;
54953;SDS011;40855;51.072;5.402;2023-02-07T00:47:08;52.95;;;18.30;;
54953;SDS011;40855;51.072;5.402;2023-02-07T00:49:34;50.50;;;19.08;;
54953;SDS011;40855;51.072;5.402;2023-02-07T00:52:00;55.88;;;18.42;;
54953;SDS011;40855;51.072;5.402;2023-02-07T00:54:25;55.53;;;18.65;;
54953;SDS011;40855;51.072;5.402;2023-02-07T00:56:51;50.83;;;18.13;;
54953;SDS011;40855;51.072;5.402;2023-02-07T00:59:17;45.67;;;17.42;;
54953;SDS011;40855;51.072;5.402;2023-02-07T01:01:43;43.70;;;18.35;;
54953;SDS011;40855;51.072;5.402;2023-02-07T01:04:08;47.95;;;17.95;;
54953;SDS011;40855;51.072;5.402;2023-02-07T01:06:34;47.72;;;19.40;;
54953;SDS011;40855;51.072;5.402;2023-02-07T01:09:01;36.50;;;17.58;;
54953;SDS011;40855;51.072;5.402;2023-02-07T01:11:29;44.53;;;17.05;;
54953;SDS011;40855;51.072;5.402;2023-02-07T01:13:57;47.38;;;19.10;;
54953;SDS011;40855;51.072;5.402;2023-02-07T01:16:27;41.33;;;18.13;;
54953;SDS011;40855;51.072;5.402;2023-02-07T01:18:54;42.15;;;17.05;;
54953;SDS011;40855;51.072;5.402;2023-02-07T01:21:22;46.70;;;17.35;;
54953;SDS011;40855;51.072;5.402;2023-02-07T01:23:49;53.55;;;17.95;;
54953;SDS011;40855;51.072;5.402;2023-02-07T01:26:16;49.90;;;18.90;;
54953;SDS011;40855;51.072;5.402;2023-02-07T01:28:42;45.60;;;17.77;;
54953;SDS011;40855;51.072;5.402;2023-02-07T01:31:09;52.00;;;18.35;;
54953;SDS011;40855;51.072;5.402;2023-02-07T01:33:36;42.80;;;18.33;;
54953;SDS011;40855;51.072;5.402;2023-02-07T01:36:06;46.53;;;18.98;;
54953;SDS011;40855;51.072;5.402;2023-02-07T01:38:37;39.83;;;18.10;;
54953;SDS011;40855;51.072;5.402;2023-02-07T01:41:03;43.67;;;18.65;;
54953;SDS011;40855;51.072;5.402;2023-02-07T01:43:29;47.47;;;18.67;;
54953;SDS011;40855;51.072;5.402;2023-02-07T01:45:55;55.20;;;19.15;;
54953;SDS011;40855;51.072;5.402;2023-02-07T01:48:25;54.72;;;19.75;;
54953;SDS011;40855;51.072;5.402;2023-02-07T01:50:58;43.78;;;17.50;;
54953;SDS011;40855;51.072;5.402;2023-02-07T01:53:27;48.70;;;19.17;;
54953;SDS011;40855;51.072;5.402;2023-02-07T01:55:55;58.28;;;20.33;;
54953;SDS011;40855;51.072;5.402;2023-02-07T01:58:25;44.65;;;19.17;;
54953;SDS011;40855;51.072;5.402;2023-02-07T02:00:51;45.95;;;18.20;;
54953;SDS011;40855;51.072;5.402;2023-02-07T02:03:17;65.13;;;22.17;;
54953;SDS011;40855;51.072;5.402;2023-02-07T02:05:43;59.40;;;21.10;;
54953;SDS011;40855;51.072;5.402;2023-02-07T02:08:11;55.45;;;22.10;;
54953;SDS011;40855;51.072;5.402;2023-02-07T02:16:41;47.28;;;21.20;;
54953;SDS011;40855;51.072;5.402;2023-02-07T02:37:42;46.45;;;19.67;;
54953;SDS011;40855;51.072;5.402;2023-02-07T02:43:05;50.55;;;20.42;;
54953;SDS011;40855;51.072;5.402;2023-02-07T02:45:38;63.95;;;21.58;;
54953;SDS011;40855;51.072;5.402;2023-02-07T02:48:09;51.47;;;19.92;;
54953;SDS011;40855;51.072;5.402;2023-02-07T02:50:36;53.92;;;22.00;;
54953;SDS011;40855;51.072;5.402;2023-02-07T02:53:03;53.28;;;21.25;;
54953;SDS011;40855;51.072;5.402;2023-02-07T02:58:33;48.70;;;20.08;;
54953;SDS011;40855;51.072;5.402;2023-02-07T03:04:15;45.38;;;18.70;;
54953;SDS011;40855;51.072;5.402;2023-02-07T03:07:09;54.38;;;20.65;;
54953;SDS011;40855;51.072;5.402;2023-02-07T03:12:36;51.25;;;20.77;;
54953;SDS011;40855;51.072;5.402;2023-02-07T03:15:15;51.85;;;19.80;;
54953;SDS011;40855;51.072;5.402;2023-02-07T03:18:03;46.03;;;17.92;;
54953;SDS011;40855;51.072;5.402;2023-02-07T03:20:32;41.65;;;17.52;;
54953;SDS011;40855;51.072;5.402;2023-02-07T03:23:03;40.17;;;17.38;;
54953;SDS011;40855;51.072;5.402;2023-02-07T03:25:31;41.88;;;16.88;;
54953;SDS011;40855;51.072;5.402;2023-02-07T03:27:57;40.30;;;16.08;;
54953;SDS011;40855;51.072;5.402;2023-02-07T03:30:25;36.97;;;15.57;;
54953;SDS011;40855;51.072;5.402;2023-02-07T03:32:55;34.08;;;15.35;;
54953;SDS011;40855;51.072;5.402;2023-02-07T03:37:53;38.95;;;17.58;;
54953;SDS011;40855;51.072;5.402;2023-02-07T03:40:25;36.63;;;15.63;;
54953;SDS011;40855;51.072;5.402;2023-02-07T03:42:58;40.58;;;17.80;;
54953;SDS011;40855;51.072;5.402;2023-02-07T03:45:39;44.38;;;18.58;;
54953;SDS011;40855;51.072;5.402;2023-02-07T03:48:05;47.88;;;20.05;;
54953;SDS011;40855;51.072;5.402;2023-02-07T03:50:31;39.53;;;17.80;;
54953;SDS011;40855;51.072;5.402;2023-02-07T03:52:56;40.50;;;18.23;;
54953;SDS011;40855;51.072;5.402;2023-02-07T03:55:22;35.70;;;17.30;;
54953;SDS011;40855;51.072;5.402;2023-02-07T03:57:48;34.45;;;16.38;;
54953;SDS011;40855;51.072;5.402;2023-02-07T04:00:13;40.58;;;15.60;;
54953;SDS011;40855;51.072;5.402;2023-02-07T04:02:40;43.38;;;17.00;;
54953;SDS011;40855;51.072;5.402;2023-02-07T04:05:06;47.53;;;19.67;;
54953;SDS011;40855;51.072;5.402;2023-02-07T04:07:32;48.70;;;19.75;;
54953;SDS011;40855;51.072;5.402;2023-02-07T04:09:58;42.03;;;20.00;;
54953;SDS011;40855;51.072;5.402;2023-02-07T04:12:23;36.17;;;17.55;;
54953;SDS011;40855;51.072;5.402;2023-02-07T04:14:56;39.35;;;16.60;;
54953;SDS011;40855;51.072;5.402;2023-02-07T04:17:25;31.10;;;15.80;;
54953;SDS011;40855;51.072;5.402;2023-02-07T04:19:51;33.10;;;15.88;;
54953;SDS011;40855;51.072;5.402;2023-02-07T04:22:17;39.25;;;17.67;;
54953;SDS011;40855;51.072;5.402;2023-02-07T04:24:43;35.88;;;17.30;;
54953;SDS011;40855;51.072;5.402;2023-02-07T04:27:09;31.63;;;16.73;;
54953;SDS011;40855;51.072;5.402;2023-02-07T04:29:34;32.00;;;15.48;;
54953;SDS011;40855;51.072;5.402;2023-02-07T04:32:00;30.92;;;15.60;;
54953;SDS011;40855;51.072;5.402;2023-02-07T04:34:27;30.55;;;15.68;;
54953;SDS011;40855;51.072;5.402;2023-02-07T04:36:53;33.97;;;16.23;;
54953;SDS011;40855;51.072;5.402;2023-02-07T04:39:19;44.40;;;18.80;;
54953;SDS011;40855;51.072;5.402;2023-02-07T04:41:45;38.30;;;17.85;;
54953;SDS011;40855;51.072;5.402;2023-02-07T04:44:11;34.08;;;17.42;;
54953;SDS011;40855;51.072;5.402;2023-02-07T04:46:36;34.00;;;16.50;;
54953;SDS011;40855;51.072;5.402;2023-02-07T04:49:02;29.45;;;15.93;;
54953;SDS011;40855;51.072;5.402;2023-02-07T04:51:28;31.70;;;16.55;;
54953;SDS011;40855;51.072;5.402;2023-02-07T04:53:54;31.20;;;16.80;;
54953;SDS011;40855;51.072;5.402;2023-02-07T04:56:20;35.63;;;17.13;;
54953;SDS011;40855;51.072;5.402;2023-02-07T04:58:47;33.58;;;15.88;;
54953;SDS011;40855;51.072;5.402;2023-02-07T05:01:13;29.67;;;16.13;;
54953;SDS011;40855;51.072;5.402;2023-02-07T05:03:39;25.17;;;14.02;;
54953;SDS011;40855;51.072;5.402;2023-02-07T05:06:04;28.70;;;15.82;;
54953;SDS011;40855;51.072;5.402;2023-02-07T05:08:30;31.40;;;15.88;;
54953;SDS011;40855;51.072;5.402;2023-02-07T05:10:56;28.40;;;15.55;;
54953;SDS011;40855;51.072;5.402;2023-02-07T05:13:23;27.17;;;14.27;;
54953;SDS011;40855;51.072;5.402;2023-02-07T05:15:49;27.83;;;14.38;;
54953;SDS011;40855;51.072;5.402;2023-02-07T05:18:15;28.65;;;15.45;;
54953;SDS011;40855;51.072;5.402;2023-02-07T05:20:41;29.33;;;14.48;;
54953;SDS011;40855;51.072;5.402;2023-02-07T05:23:07;32.42;;;15.68;;
54953;SDS011;40855;51.072;5.402;2023-02-07T05:25:33;33.30;;;16.30;;
54953;SDS011;40855;51.072;5.402;2023-02-07T05:27:58;35.58;;;16.05;;
54953;SDS011;40855;51.072;5.402;2023-02-07T05:30:24;35.00;;;16.75;;
54953;SDS011;40855;51.072;5.402;2023-02-07T05:32:50;33.95;;;16.38;;
54953;SDS011;40855;51.072;5.402;2023-02-07T05:35:28;32.05;;;15.68;;
54953;SDS011;40855;51.072;5.402;2023-02-07T05:38:01;30.50;;;15.32;;
54953;SDS011;40855;51.072;5.402;2023-02-07T05:40:30;35.13;;;15.80;;
54953;SDS011;40855;51.072;5.402;2023-02-07T05:42:56;34.35;;;16.45;;
54953;SDS011;40855;51.072;5.402;2023-02-07T05:45:22;33.83;;;15.70;;
54953;SDS011;40855;51.072;5.402;2023-02-07T05:47:48;41.25;;;15.98;;
54953;SDS011;40855;51.072;5.402;2023-02-07T05:50:13;34.20;;;15.70;;
54953;SDS011;40855;51.072;5.402;2023-02-07T05:52:39;32.88;;;15.43;;
54953;SDS011;40855;51.072;5.402;2023-02-07T05:55:05;37.45;;;17.02;;
54953;SDS011;40855;51.072;5.402;2023-02-07T05:57:31;29.45;;;15.02;;
54953;SDS011;40855;51.072;5.402;2023-02-07T05:59:57;30.10;;;14.95;;
54953;SDS011;40855;51.072;5.402;2023-02-07T06:02:22;36.58;;;13.70;;
54953;SDS011;40855;51.072;5.402;2023-02-07T06:04:48;29.98;;;14.10;;
54953;SDS011;40855;51.072;5.402;2023-02-07T06:07:14;33.65;;;14.27;;
54953;SDS011;40855;51.072;5.402;2023-02-07T06:09:40;25.08;;;13.32;;
54953;SDS011;40855;51.072;5.402;2023-02-07T06:12:05;34.33;;;14.07;;
54953;SDS011;40855;51.072;5.402;2023-02-07T06:14:31;37.45;;;14.75;;
54953;SDS011;40855;51.072;5.402;2023-02-07T06:16:57;31.30;;;14.63;;
54953;SDS011;40855;51.072;5.402;2023-02-07T06:19:23;27.33;;;13.68;;
54953;SDS011;40855;51.072;5.402;2023-02-07T06:21:49;27.33;;;12.73;;
54953;SDS011;40855;51.072;5.402;2023-02-07T06:24:14;28.40;;;12.90;;
54953;SDS011;40855;51.072;5.402;2023-02-07T06:26:40;31.80;;;13.57;;
54953;SDS011;40855;51.072;5.402;2023-02-07T06:29:07;30.83;;;13.73;;
54953;SDS011;40855;51.072;5.402;2023-02-07T06:31:33;28.33;;;12.80;;
54953;SDS011;40855;51.072;5.402;2023-02-07T06:33:58;36.88;;;15.95;;
54953;SDS011;40855;51.072;5.402;2023-02-07T06:36:24;27.73;;;15.13;;
54953;SDS011;40855;51.072;5.402;2023-02-07T06:38:50;29.35;;;12.13;;
54953;SDS011;40855;51.072;5.402;2023-02-07T06:41:18;30.10;;;12.85;;
54953;SDS011;40855;51.072;5.402;2023-02-07T06:43:44;34.67;;;14.32;;
54953;SDS011;40855;51.072;5.402;2023-02-07T06:46:10;36.03;;;14.15;;
54953;SDS011;40855;51.072;5.402;2023-02-07T06:48:36;26.00;;;12.65;;
54953;SDS011;40855;51.072;5.402;2023-02-07T06:51:01;31.90;;;14.30;;
54953;SDS011;40855;51.072;5.402;2023-02-07T06:53:27;32.05;;;13.85;;
54953;SDS011;40855;51.072;5.402;2023-02-07T06:55:54;36.78;;;14.48;;
54953;SDS011;40855;51.072;5.402;2023-02-07T06:58:20;31.70;;;14.35;;
54953;SDS011;40855;51.072;5.402;2023-02-07T07:00:46;25.83;;;12.18;;
54953;SDS011;40855;51.072;5.402;2023-02-07T07:03:12;27.35;;;13.45;;
54953;SDS011;40855;51.072;5.402;2023-02-07T07:05:39;35.10;;;16.25;;
54953;SDS011;40855;51.072;5.402;2023-02-07T07:08:05;33.25;;;14.88;;
54953;SDS011;40855;51.072;5.402;2023-02-07T07:10:32;44.47;;;14.88;;
54953;SDS011;40855;51.072;5.402;2023-02-07T07:12:58;36.83;;;14.80;;
54953;SDS011;40855;51.072;5.402;2023-02-07T07:15:24;38.45;;;14.77;;
54953;SDS011;40855;51.072;5.402;2023-02-07T07:17:50;41.88;;;15.93;;
54953;SDS011;40855;51.072;5.402;2023-02-07T07:20:16;35.55;;;14.52;;
54953;SDS011;40855;51.072;5.402;2023-02-07T07:22:42;29.70;;;14.65;;
54953;SDS011;40855;51.072;5.402;2023-02-07T07:25:08;35.10;;;14.73;;
54953;SDS011;40855;51.072;5.402;2023-02-07T07:27:34;30.25;;;14.40;;
54953;SDS011;40855;51.072;5.402;2023-02-07T07:30:00;33.63;;;14.65;;
54953;SDS011;40855;51.072;5.402;2023-02-07T07:32:25;40.47;;;15.95;;
54953;SDS011;40855;51.072;5.402;2023-02-07T07:34:51;68.40;;;22.45;;
54953;SDS011;40855;51.072;5.402;2023-02-07T07:37:18;81.43;;;27.13;;
54953;SDS011;40855;51.072;5.402;2023-02-07T07:39:45;57.70;;;21.73;;
54953;SDS011;40855;51.072;5.402;2023-02-07T07:42:10;48.13;;;19.60;;
54953;SDS011;40855;51.072;5.402;2023-02-07T07:44:36;42.88;;;18.58;;
54953;SDS011;40855;51.072;5.402;2023-02-07T07:47:02;45.63;;;18.33;;
54953;SDS011;40855;51.072;5.402;2023-02-07T07:49:28;48.15;;;15.95;;
54953;SDS011;40855;51.072;5.402;2023-02-07T07:51:54;44.58;;;18.27;;
54953;SDS011;40855;51.072;5.402;2023-02-07T07:54:19;41.00;;;16.85;;
54953;SDS011;40855;51.072;5.402;2023-02-07T07:56:45;30.67;;;14.40;;
54953;SDS011;40855;51.072;5.402;2023-02-07T07:59:11;38.58;;;15.40;;
54953;SDS011;40855;51.072;5.402;2023-02-07T08:01:37;33.33;;;15.20;;
54953;SDS011;40855;51.072;5.402;2023-02-07T08:04:03;31.98;;;14.63;;
54953;SDS011;40855;51.072;5.402;2023-02-07T08:06:29;30.80;;;14.65;;
54953;SDS011;40855;51.072;5.402;2023-02-07T08:08:55;30.50;;;13.85;;
54953;SDS011;40855;51.072;5.402;2023-02-07T08:11:21;34.42;;;14.77;;
54953;SDS011;40855;51.072;5.402;2023-02-07T08:13:47;39.30;;;14.98;;
54953;SDS011;40855;51.072;5.402;2023-02-07T08:16:14;35.47;;;15.27;;
54953;SDS011;40855;51.072;5.402;2023-02-07T08:18:39;35.78;;;15.50;;
54953;SDS011;40855;51.072;5.402;2023-02-07T08:21:05;35.75;;;15.82;;
54953;SDS011;40855;51.072;5.402;2023-02-07T08:23:32;32.85;;;16.80;;
54953;SDS011;40855;51.072;5.402;2023-02-07T08:25:57;49.42;;;20.83;;
54953;SDS011;40855;51.072;5.402;2023-02-07T08:28:23;44.10;;;19.38;;
54953;SDS011;40855;51.072;5.402;2023-02-07T08:30:50;50.10;;;20.52;;
54953;SDS011;40855;51.072;5.402;2023-02-07T08:33:16;35.15;;;18.10;;
54953;SDS011;40855;51.072;5.402;2023-02-07T08:35:42;40.92;;;17.58;;
54953;SDS011;40855;51.072;5.402;2023-02-07T08:38:08;40.00;;;16.13;;
54953;SDS011;40855;51.072;5.402;2023-02-07T08:40:34;35.58;;;16.33;;
54953;SDS011;40855;51.072;5.402;2023-02-07T08:43:00;35.30;;;16.23;;
54953;SDS011;40855;51.072;5.402;2023-02-07T08:45:26;37.83;;;15.05;;
54953;SDS011;40855;51.072;5.402;2023-02-07T08:47:52;34.00;;;14.68;;
54953;SDS011;40855;51.072;5.402;2023-02-07T08:50:18;38.10;;;16.85;;
54953;SDS011;40855;51.072;5.402;2023-02-07T08:52:44;38.83;;;21.08;;
54953;SDS011;40855;51.072;5.402;2023-02-07T08:55:10;36.90;;;14.93;;
54953;SDS011;40855;51.072;5.402;2023-02-07T08:57:37;32.28;;;15.38;;
54953;SDS011;40855;51.072;5.402;2023-02-07T09:00:05;28.88;;;13.98;;
54953;SDS011;40855;51.072;5.402;2023-02-07T09:02:32;32.42;;;14.63;;
54953;SDS011;40855;51.072;5.402;2023-02-07T09:04:57;28.23;;;13.48;;
54953;SDS011;40855;51.072;5.402;2023-02-07T09:07:23;27.92;;;13.40;;
54953;SDS011;40855;51.072;5.402;2023-02-07T09:09:49;31.98;;;13.35;;
54953;SDS011;40855;51.072;5.402;2023-02-07T09:12:14;32.88;;;14.18;;
54953;SDS011;40855;51.072;5.402;2023-02-07T09:14:41;33.97;;;13.82;;
54953;SDS011;40855;51.072;5.402;2023-02-07T09:17:06;30.10;;;14.38;;
54953;SDS011;40855;51.072;5.402;2023-02-07T09:19:33;24.95;;;11.93;;
54953;SDS011;40855;51.072;5.402;2023-02-07T09:21:59;29.30;;;12.00;;
54953;SDS011;40855;51.072;5.402;2023-02-07T09:24:25;26.30;;;12.38;;
54953;SDS011;40855;51.072;5.402;2023-02-07T09:26:51;28.48;;;12.02;;
54953;SDS011;40855;51.072;5.402;2023-02-07T09:29:17;23.42;;;11.45;;
54953;SDS011;40855;51.072;5.402;2023-02-07T09:31:43;21.88;;;11.32;;
54953;SDS011;40855;51.072;5.402;2023-02-07T09:34:10;20.83;;;11.80;;
54953;SDS011;40855;51.072;5.402;2023-02-07T09:36:35;27.10;;;12.07;;
54953;SDS011;40855;51.072;5.402;2023-02-07T09:39:01;28.00;;;11.43;;
54953;SDS011;40855;51.072;5.402;2023-02-07T09:51:59;24.08;;;11.50;;
54953;SDS011;40855;51.072;5.402;2023-02-07T09:54:37;20.30;;;11.05;;
54953;SDS011;40855;51.072;5.402;2023-02-07T09:57:10;18.15;;;11.13;;
54953;SDS011;40855;51.072;5.402;2023-02-07T09:59:53;23.10;;;11.00;;
54953;SDS011;40855;51.072;5.402;2023-02-07T10:02:33;20.95;;;10.98;;
54953;SDS011;40855;51.072;5.402;2023-02-07T10:05:12;21.25;;;11.10;;
54953;SDS011;40855;51.072;5.402;2023-02-07T10:07:43;23.25;;;10.48;;
54953;SDS011;40855;51.072;5.402;2023-02-07T10:10:14;20.27;;;10.98;;
54953;SDS011;40855;51.072;5.402;2023-02-07T10:12:46;23.55;;;9.75;;
54953;SDS011;40855;51.072;5.402;2023-02-07T10:23:20;21.90;;;9.90;;
54953;SDS011;40855;51.072;5.402;2023-02-07T10:26:24;19.90;;;10.18;;
54953;SDS011;40855;51.072;5.402;2023-02-07T10:31:43;17.67;;;9.55;;
54953;SDS011;40855;51.072;5.402;2023-02-07T10:34:13;19.55;;;10.43;;
54953;SDS011;40855;51.072;5.402;2023-02-07T10:36:52;15.63;;;9.32;;
54953;SDS011;40855;51.072;5.402;2023-02-07T10:41:53;17.80;;;10.20;;
54953;SDS011;40855;51.072;5.402;2023-02-07T10:44:21;17.40;;;9.98;;
54953;SDS011;40855;51.072;5.402;2023-02-07T10:46:58;17.13;;;9.70;;
54953;SDS011;40855;51.072;5.402;2023-02-07T10:49:27;15.85;;;8.95;;
54953;SDS011;40855;51.072;5.402;2023-02-07T10:51:58;21.20;;;9.98;;
54953;SDS011;40855;51.072;5.402;2023-02-07T10:54:47;19.27;;;8.93;;
54953;SDS011;40855;51.072;5.402;2023-02-07T10:57:18;17.38;;;9.10;;
54953;SDS011;40855;51.072;5.402;2023-02-07T10:59:45;13.88;;;8.15;;
54953;SDS011;40855;51.072;5.402;2023-02-07T11:04:53;13.77;;;8.23;;
54953;SDS011;40855;51.072;5.402;2023-02-07T11:07:20;15.15;;;8.77;;
54953;SDS011;40855;51.072;5.402;2023-02-07T11:09:46;12.90;;;7.90;;
54953;SDS011;40855;51.072;5.402;2023-02-07T11:12:14;12.75;;;8.23;;
54953;SDS011;40855;51.072;5.402;2023-02-07T11:15:00;18.17;;;9.17;;
54953;SDS011;40855;51.072;5.402;2023-02-07T11:17:32;12.43;;;7.50;;
54953;SDS011;40855;51.072;5.402;2023-02-07T11:20:05;15.70;;;7.57;;
54953;SDS011;40855;51.072;5.402;2023-02-07T11:22:31;11.57;;;7.13;;
54953;SDS011;40855;51.072;5.402;2023-02-07T11:25:04;13.50;;;7.38;;
54953;SDS011;40855;51.072;5.402;2023-02-07T11:27:38;12.93;;;7.53;;
54953;SDS011;40855;51.072;5.402;2023-02-07T11:30:07;10.80;;;7.45;;
54953;SDS011;40855;51.072;5.402;2023-02-07T11:32:40;16.08;;;8.57;;
54953;SDS011;40855;51.072;5.402;2023-02-07T11:35:07;19.40;;;8.10;;
54953;SDS011;40855;51.072;5.402;2023-02-07T11:40:31;16.50;;;8.40;;
54953;SDS011;40855;51.072;5.402;2023-02-07T11:43:11;13.57;;;7.18;;
54953;SDS011;40855;51.072;5.402;2023-02-07T11:45:42;11.60;;;6.70;;
54953;SDS011;40855;51.072;5.402;2023-02-07T11:48:17;13.60;;;8.05;;
54953;SDS011;40855;51.072;5.402;2023-02-07T11:53:23;10.35;;;6.40;;
54953;SDS011;40855;51.072;5.402;2023-02-07T11:55:52;10.82;;;5.93;;
54953;SDS011;40855;51.072;5.402;2023-02-07T11:58:53;10.65;;;6.25;;
54953;SDS011;40855;51.072;5.402;2023-02-07T12:01:17;11.02;;;5.55;;
54953;SDS011;40855;51.072;5.402;2023-02-07T12:03:57;9.85;;;6.60;;
54953;SDS011;40855;51.072;5.402;2023-02-07T12:06:37;10.45;;;6.35;;
54953;SDS011;40855;51.072;5.402;2023-02-07T12:11:54;9.02;;;6.18;;
54953;SDS011;40855;51.072;5.402;2023-02-07T12:17:13;8.63;;;5.53;;
54953;SDS011;40855;51.072;5.402;2023-02-07T12:19:51;13.75;;;7.78;;
54953;SDS011;40855;51.072;5.402;2023-02-07T12:25:22;14.85;;;6.97;;
54953;SDS011;40855;51.072;5.402;2023-02-07T12:27:55;10.57;;;6.07;;
54953;SDS011;40855;51.072;5.402;2023-02-07T12:38:37;8.20;;;6.13;;
54953;SDS011;40855;51.072;5.402;2023-02-07T12:41:27;7.57;;;5.93;;
54953;SDS011;40855;51.072;5.402;2023-02-07T12:46:58;9.23;;;6.82;;
54953;SDS011;40855;51.072;5.402;2023-02-07T12:54:31;14.07;;;6.10;;
54953;SDS011;40855;51.072;5.402;2023-02-07T12:57:42;7.90;;;5.88;;
54953;SDS011;40855;51.072;5.402;2023-02-07T13:23:32;6.80;;;5.40;;
54953;SDS011;40855;51.072;5.402;2023-02-07T13:26:04;9.02;;;5.63;;
54953;SDS011;40855;51.072;5.402;2023-02-07T13:28:40;8.15;;;6.22;;
54953;SDS011;40855;51.072;5.402;2023-02-07T13:31:13;9.40;;;6.40;;
54953;SDS011;40855;51.072;5.402;2023-02-07T13:33:42;8.90;;;6.53;;
54953;SDS011;40855;51.072;5.402;2023-02-07T13:36:18;10.23;;;5.95;;
54953;SDS011;40855;51.072;5.402;2023-02-07T13:52:51;7.45;;;5.68;;
54953;SDS011;40855;51.072;5.402;2023-02-07T13:55:38;6.72;;;5.53;;
54953;SDS011;40855;51.072;5.402;2023-02-07T14:01:18;9.63;;;6.13;;
54953;SDS011;40855;51.072;5.402;2023-02-07T14:04:00;7.93;;;6.10;;
54953;SDS011;40855;51.072;5.402;2023-02-07T14:06:29;8.00;;;5.70;;
54953;SDS011;40855;51.072;5.402;2023-02-07T14:11:43;9.77;;;6.05;;
54953;SDS011;40855;51.072;5.402;2023-02-07T14:16:51;12.25;;;6.32;;
54953;SDS011;40855;51.072;5.402;2023-02-07T14:22:12;8.98;;;5.90;;
54953;SDS011;40855;51.072;5.402;2023-02-07T14:27:32;7.90;;;6.50;;
54953;SDS011;40855;51.072;5.402;2023-02-07T14:35:44;6.65;;;5.57;;
54953;SDS011;40855;51.072;5.402;2023-02-07T14:41:08;8.02;;;6.00;;
54953;SDS011;40855;51.072;5.402;2023-02-07T14:43:53;8.65;;;6.88;;
54953;SDS011;40855;51.072;5.402;2023-02-07T14:46:28;6.93;;;6.22;;
54953;SDS011;40855;51.072;5.402;2023-02-07T14:49:01;10.93;;;6.22;;
54953;SDS011;40855;51.072;5.402;2023-02-07T14:54:01;12.98;;;6.88;;
54953;SDS011;40855;51.072;5.402;2023-02-07T14:59:17;11.77;;;7.07;;
54953;SDS011;40855;51.072;5.402;2023-02-07T15:01:51;8.23;;;6.32;;
54953;SDS011;40855;51.072;5.402;2023-02-07T15:04:16;10.18;;;6.63;;
54953;SDS011;40855;51.072;5.402;2023-02-07T15:06:43;7.55;;;6.25;;
54953;SDS011;40855;51.072;5.402;2023-02-07T15:09:21;11.50;;;7.18;;
54953;SDS011;40855;51.072;5.402;2023-02-07T15:11:51;15.88;;;6.93;;
54953;SDS011;40855;51.072;5.402;2023-02-07T15:14:30;8.20;;;6.20;;
54953;SDS011;40855;51.072;5.402;2023-02-07T15:16:58;11.48;;;7.68;;
54953;SDS011;40855;51.072;5.402;2023-02-07T15:19:38;8.70;;;6.78;;
54953;SDS011;40855;51.072;5.402;2023-02-07T15:22:05;9.57;;;6.93;;
54953;SDS011;40855;51.072;5.402;2023-02-07T15:27:03;9.20;;;6.93;;
54953;SDS011;40855;51.072;5.402;2023-02-07T15:29:34;13.50;;;8.65;;
54953;SDS011;40855;51.072;5.402;2023-02-07T15:34:46;9.75;;;6.93;;
54953;SDS011;40855;51.072;5.402;2023-02-07T15:37:14;10.30;;;7.00;;
54953;SDS011;40855;51.072;5.402;2023-02-07T15:39:43;10.20;;;7.10;;
54953;SDS011;40855;51.072;5.402;2023-02-07T15:42:14;10.98;;;7.32;;
54953;SDS011;40855;51.072;5.402;2023-02-07T15:44:49;10.40;;;7.63;;
54953;SDS011;40855;51.072;5.402;2023-02-07T15:49:59;11.82;;;7.75;;
54953;SDS011;40855;51.072;5.402;2023-02-07T15:55:04;12.40;;;7.35;;
54953;SDS011;40855;51.072;5.402;2023-02-07T15:57:44;14.27;;;7.82;;
54953;SDS011;40855;51.072;5.402;2023-02-07T16:00:18;13.50;;;8.35;;
54953;SDS011;40855;51.072;5.402;2023-02-07T16:03:00;13.13;;;7.90;;
54953;SDS011;40855;51.072;5.402;2023-02-07T16:05:33;11.15;;;7.50;;
54953;SDS011;40855;51.072;5.402;2023-02-07T16:08:01;14.43;;;7.75;;
54953;SDS011;40855;51.072;5.402;2023-02-07T16:18:39;9.75;;;7.93;;
54953;SDS011;40855;51.072;5.402;2023-02-07T16:23:42;11.77;;;8.13;;
54953;SDS011;40855;51.072;5.402;2023-02-07T16:26:09;12.13;;;8.80;;
54953;SDS011;40855;51.072;5.402;2023-02-07T16:28:35;13.55;;;7.80;;
54953;SDS011;40855;51.072;5.402;2023-02-07T16:31:01;10.52;;;7.45;;
54953;SDS011;40855;51.072;5.402;2023-02-07T16:33:27;9.45;;;7.10;;
54953;SDS011;40855;51.072;5.402;2023-02-07T16:35:52;11.82;;;6.95;;
54953;SDS011;40855;51.072;5.402;2023-02-07T16:38:18;8.50;;;6.55;;
54953;SDS011;40855;51.072;5.402;2023-02-07T16:40:44;17.77;;;7.50;;
54953;SDS011;40855;51.072;5.402;2023-02-07T16:43:28;8.63;;;6.82;;
54953;SDS011;40855;51.072;5.402;2023-02-07T16:46:04;12.07;;;6.78;;
54953;SDS011;40855;51.072;5.402;2023-02-07T16:48:30;11.73;;;6.93;;
54953;SDS011;40855;51.072;5.402;2023-02-07T16:50:56;16.70;;;6.82;;
54953;SDS011;40855;51.072;5.402;2023-02-07T16:53:22;25.88;;;7.53;;
54953;SDS011;40855;51.072;5.402;2023-02-07T16:55:49;16.85;;;7.13;;
54953;SDS011;40855;51.072;5.402;2023-02-07T16:58:24;20.52;;;7.75;;
54953;SDS011;40855;51.072;5.402;2023-02-07T17:00:54;20.42;;;7.90;;
54953;SDS011;40855;51.072;5.402;2023-02-07T17:03:21;12.65;;;7.45;;
54953;SDS011;40855;51.072;5.402;2023-02-07T17:05:47;14.73;;;7.85;;
54953;SDS011;40855;51.072;5.402;2023-02-07T17:08:14;11.73;;;8.30;;
54953;SDS011;40855;51.072;5.402;2023-02-07T17:11:00;9.98;;;7.38;;
54953;SDS011;40855;51.072;5.402;2023-02-07T17:13:27;12.50;;;7.82;;
54953;SDS011;40855;51.072;5.402;2023-02-07T17:15:53;15.68;;;7.22;;
54953;SDS011;40855;51.072;5.402;2023-02-07T17:18:19;9.60;;;7.10;;
54953;SDS011;40855;51.072;5.402;2023-02-07T17:20:45;12.00;;;7.35;;
54953;SDS011;40855;51.072;5.402;2023-02-07T17:23:11;8.88;;;6.88;;
54953;SDS011;40855;51.072;5.402;2023-02-07T17:25:37;14.43;;;7.43;;
54953;SDS011;40855;51.072;5.402;2023-02-07T17:28:03;14.57;;;7.60;;
54953;SDS011;40855;51.072;5.402;2023-02-07T17:30:31;11.65;;;7.63;;
54953;SDS011;40855;51.072;5.402;2023-02-07T17:33:02;10.23;;;7.32;;
54953;SDS011;40855;51.072;5.402;2023-02-07T17:35:31;13.00;;;7.68;;
54953;SDS011;40855;51.072;5.402;2023-02-07T17:37:57;9.25;;;7.05;;
54953;SDS011;40855;51.072;5.402;2023-02-07T17:42:51;11.18;;;7.28;;